sensor_id;sensor_type;location;lat;lon;timestamp;temperature;humidity
18729;DHT22;9493;51.884;5.188;2022-09-09T00:24:26;14.80;99.90
18729;DHT22;9493;51.884;5.188;2022-09-09T00:26:59;14.80;99.90
18729;DHT22;9493;51.884;5.188;2022-09-09T00:29:33;14.80;99.90
18729;DHT22;9493;51.884;5.188;2022-09-09T00:32:09;14.70;99.90
18729;DHT22;9493;51.884;5.188;2022-09-09T00:34:55;14.70;99.90
18729;DHT22;9493;51.884;5.188;2022-09-09T00:37:24;14.70;99.90
18729;DHT22;9493;51.884;5.188;2022-09-09T00:39:55;14.60;99.90
18729;DHT22;9493;51.884;5.188;2022-09-09T00:42:25;14.60;99.90
18729;DHT22;9493;51.884;5.188;2022-09-09T00:44:58;14.60;99.90
18729;DHT22;9493;51.884;5.188;2022-09-09T00:47:51;14.60;99.90
18729;DHT22;9493;51.884;5.188;2022-09-09T00:50:38;14.50;99.90
18729;DHT22;9493;51.884;5.188;2022-09-09T00:53:24;14.50;99.90
18729;DHT22;9493;51.884;5.188;2022-09-09T00:56:00;14.50;99.90
18729;DHT22;9493;51.884;5.188;2022-09-09T00:58:32;14.50;99.90
18729;DHT22;9493;51.884;5.188;2022-09-09T01:01:04;14.50;99.90
18729;DHT22;9493;51.884;5.188;2022-09-09T01:03:42;14.50;99.90
18729;DHT22;9493;51.884;5.188;2022-09-09T01:06:16;14.50;99.90
18729;DHT22;9493;51.884;5.188;2022-09-09T01:09:07;14.50;99.90
18729;DHT22;9493;51.884;5.188;2022-09-09T01:11:46;14.40;99.90
18729;DHT22;9493;51.884;5.188;2022-09-09T01:14:23;14.40;99.90
18729;DHT22;9493;51.884;5.188;2022-09-09T01:16:56;14.40;99.90
18729;DHT22;9493;51.884;5.188;2022-09-09T01:19:39;14.40;99.90
18729;DHT22;9493;51.884;5.188;2022-09-09T01:22:12;14.30;99.90
18729;DHT22;9493;51.884;5.188;2022-09-09T01:24:49;14.40;99.90
18729;DHT22;9493;51.884;5.188;2022-09-09T01:27:21;14.30;99.90
18729;DHT22;9493;51.884;5.188;2022-09-09T01:29:50;14.30;99.90
18729;DHT22;9493;51.884;5.188;2022-09-09T01:32:42;14.30;99.90
18729;DHT22;9493;51.884;5.188;2022-09-09T01:35:13;14.30;99.90
18729;DHT22;9493;51.884;5.188;2022-09-09T01:37:41;14.30;99.90
18729;DHT22;9493;51.884;5.188;2022-09-09T01:40:08;14.30;99.90
18729;DHT22;9493;51.884;5.188;2022-09-09T01:42:37;14.20;99.90
18729;DHT22;9493;51.884;5.188;2022-09-09T01:45:04;14.20;99.90
18729;DHT22;9493;51.884;5.188;2022-09-09T01:47:41;14.20;99.90
18729;DHT22;9493;51.884;5.188;2022-09-09T01:50:10;14.20;99.90
18729;DHT22;9493;51.884;5.188;2022-09-09T01:52:37;14.20;99.90
18729;DHT22;9493;51.884;5.188;2022-09-09T01:55:05;14.20;99.90
18729;DHT22;9493;51.884;5.188;2022-09-09T01:57:36;14.20;99.90
18729;DHT22;9493;51.884;5.188;2022-09-09T02:00:09;14.20;99.90
18729;DHT22;9493;51.884;5.188;2022-09-09T02:02:52;14.20;99.90
18729;DHT22;9493;51.884;5.188;2022-09-09T02:05:38;14.10;99.90
18729;DHT22;9493;51.884;5.188;2022-09-09T02:08:06;14.10;99.90
18729;DHT22;9493;51.884;5.188;2022-09-09T02:10:40;14.10;99.90
18729;DHT22;9493;51.884;5.188;2022-09-09T02:13:11;14.10;99.90
18729;DHT22;9493;51.884;5.188;2022-09-09T02:15:44;14.10;99.90
18729;DHT22;9493;51.884;5.188;2022-09-09T02:18:25;14.10;99.90
18729;DHT22;9493;51.884;5.188;2022-09-09T02:20:53;14.00;99.90
18729;DHT22;9493;51.884;5.188;2022-09-09T02:23:21;14.00;99.90
18729;DHT22;9493;51.884;5.188;2022-09-09T02:25:48;14.00;99.90
18729;DHT22;9493;51.884;5.188;2022-09-09T02:28:18;14.00;99.90
18729;DHT22;9493;51.884;5.188;2022-09-09T02:30:50;14.00;99.90
18729;DHT22;9493;51.884;5.188;2022-09-09T02:33:30;14.00;99.90
18729;DHT22;9493;51.884;5.188;2022-09-09T02:36:01;14.00;99.90
18729;DHT22;9493;51.884;5.188;2022-09-09T02:38:35;14.00;99.90
18729;DHT22;9493;51.884;5.188;2022-09-09T02:41:05;14.00;99.90
18729;DHT22;9493;51.884;5.188;2022-09-09T02:43:32;14.00;99.90
18729;DHT22;9493;51.884;5.188;2022-09-09T02:46:05;13.90;99.90
18729;DHT22;9493;51.884;5.188;2022-09-09T02:48:50;13.90;99.90
18729;DHT22;9493;51.884;5.188;2022-09-09T02:51:23;13.90;99.90
18729;DHT22;9493;51.884;5.188;2022-09-09T02:53:57;13.90;99.90
18729;DHT22;9493;51.884;5.188;2022-09-09T02:56:27;13.80;99.90
18729;DHT22;9493;51.884;5.188;2022-09-09T02:58:58;13.90;99.90
18729;DHT22;9493;51.884;5.188;2022-09-09T03:01:26;13.80;99.90
18729;DHT22;9493;51.884;5.188;2022-09-09T03:04:02;13.80;99.90
18729;DHT22;9493;51.884;5.188;2022-09-09T03:06:30;13.80;99.90
18729;DHT22;9493;51.884;5.188;2022-09-09T03:08:57;13.80;99.90
18729;DHT22;9493;51.884;5.188;2022-09-09T03:11:26;13.80;99.90
18729;DHT22;9493;51.884;5.188;2022-09-09T03:13:53;13.80;99.90
18729;DHT22;9493;51.884;5.188;2022-09-09T03:16:21;13.80;99.90
18729;DHT22;9493;51.884;5.188;2022-09-09T03:18:59;13.80;99.90
18729;DHT22;9493;51.884;5.188;2022-09-09T03:21:25;13.80;99.90
18729;DHT22;9493;51.884;5.188;2022-09-09T03:23:52;13.70;99.90
18729;DHT22;9493;51.884;5.188;2022-09-09T03:26:19;13.70;99.90
18729;DHT22;9493;51.884;5.188;2022-09-09T03:28:46;13.80;99.90
18729;DHT22;9493;51.884;5.188;2022-09-09T03:31:12;13.80;99.90
18729;DHT22;9493;51.884;5.188;2022-09-09T03:33:46;13.70;99.90
18729;DHT22;9493;51.884;5.188;2022-09-09T03:36:14;13.80;99.90
18729;DHT22;9493;51.884;5.188;2022-09-09T03:38:41;13.70;99.90
18729;DHT22;9493;51.884;5.188;2022-09-09T03:41:08;13.80;99.90
18729;DHT22;9493;51.884;5.188;2022-09-09T03:43:35;13.70;99.90
18729;DHT22;9493;51.884;5.188;2022-09-09T03:46:03;13.80;99.90
18729;DHT22;9493;51.884;5.188;2022-09-09T03:48:43;13.80;99.90
18729;DHT22;9493;51.884;5.188;2022-09-09T03:51:09;13.90;99.90
18729;DHT22;9493;51.884;5.188;2022-09-09T03:53:38;13.90;99.90
18729;DHT22;9493;51.884;5.188;2022-09-09T03:56:06;13.90;99.90
18729;DHT22;9493;51.884;5.188;2022-09-09T03:58:34;14.00;99.90
18729;DHT22;9493;51.884;5.188;2022-09-09T04:01:02;13.80;99.90
18729;DHT22;9493;51.884;5.188;2022-09-09T04:03:44;13.80;99.90
18729;DHT22;9493;51.884;5.188;2022-09-09T04:06:13;13.90;99.90
18729;DHT22;9493;51.884;5.188;2022-09-09T04:08:41;13.90;99.90
18729;DHT22;9493;51.884;5.188;2022-09-09T04:11:09;13.90;99.90
18729;DHT22;9493;51.884;5.188;2022-09-09T04:13:37;13.90;99.90
18729;DHT22;9493;51.884;5.188;2022-09-09T04:16:05;14.00;99.90
18729;DHT22;9493;51.884;5.188;2022-09-09T04:18:38;13.90;99.90
18729;DHT22;9493;51.884;5.188;2022-09-09T04:21:05;13.90;99.90
18729;DHT22;9493;51.884;5.188;2022-09-09T04:23:33;13.90;99.90
18729;DHT22;9493;51.884;5.188;2022-09-09T04:26:03;14.00;99.90
18729;DHT22;9493;51.884;5.188;2022-09-09T04:28:32;14.00;99.90
18729;DHT22;9493;51.884;5.188;2022-09-09T04:31:04;14.00;99.90
18729;DHT22;9493;51.884;5.188;2022-09-09T04:33:40;14.00;99.90
18729;DHT22;9493;51.884;5.188;2022-09-09T04:36:07;14.00;99.90
18729;DHT22;9493;51.884;5.188;2022-09-09T04:38:34;14.00;99.90
18729;DHT22;9493;51.884;5.188;2022-09-09T04:41:02;14.00;99.90
18729;DHT22;9493;51.884;5.188;2022-09-09T04:43:29;13.90;99.90
18729;DHT22;9493;51.884;5.188;2022-09-09T04:45:56;14.00;99.90
18729;DHT22;9493;51.884;5.188;2022-09-09T04:48:34;14.00;99.90
18729;DHT22;9493;51.884;5.188;2022-09-09T04:51:03;14.00;99.90
18729;DHT22;9493;51.884;5.188;2022-09-09T04:53:30;14.00;99.90
18729;DHT22;9493;51.884;5.188;2022-09-09T04:56:09;14.00;99.90
18729;DHT22;9493;51.884;5.188;2022-09-09T04:58:36;14.00;99.90
18729;DHT22;9493;51.884;5.188;2022-09-09T05:01:08;14.00;99.90
18729;DHT22;9493;51.884;5.188;2022-09-09T05:03:50;14.00;99.90
18729;DHT22;9493;51.884;5.188;2022-09-09T05:06:20;14.00;99.90
18729;DHT22;9493;51.884;5.188;2022-09-09T05:08:47;14.00;99.90
18729;DHT22;9493;51.884;5.188;2022-09-09T05:11:17;14.00;99.90
18729;DHT22;9493;51.884;5.188;2022-09-09T05:13:45;14.00;99.90
18729;DHT22;9493;51.884;5.188;2022-09-09T05:16:13;14.00;99.90
18729;DHT22;9493;51.884;5.188;2022-09-09T05:18:55;14.00;99.90
18729;DHT22;9493;51.884;5.188;2022-09-09T05:21:24;14.00;99.90
18729;DHT22;9493;51.884;5.188;2022-09-09T05:26:28;14.10;99.90
18729;DHT22;9493;51.884;5.188;2022-09-09T05:28:56;14.10;99.90
18729;DHT22;9493;51.884;5.188;2022-09-09T05:31:24;14.20;99.90
18729;DHT22;9493;51.884;5.188;2022-09-09T05:33:53;14.20;99.90
18729;DHT22;9493;51.884;5.188;2022-09-09T05:36:21;14.20;99.90
18729;DHT22;9493;51.884;5.188;2022-09-09T05:38:48;14.30;99.90
18729;DHT22;9493;51.884;5.188;2022-09-09T05:41:16;14.30;99.90
18729;DHT22;9493;51.884;5.188;2022-09-09T05:43:44;14.30;99.90
18729;DHT22;9493;51.884;5.188;2022-09-09T05:46:13;14.40;99.90
18729;DHT22;9493;51.884;5.188;2022-09-09T05:48:41;14.40;99.90
18729;DHT22;9493;51.884;5.188;2022-09-09T05:51:11;14.40;99.90
18729;DHT22;9493;51.884;5.188;2022-09-09T05:53:38;14.40;99.90
18729;DHT22;9493;51.884;5.188;2022-09-09T05:56:06;14.50;99.90
18729;DHT22;9493;51.884;5.188;2022-09-09T05:58:35;14.50;99.90
18729;DHT22;9493;51.884;5.188;2022-09-09T06:01:05;14.50;99.90
18729;DHT22;9493;51.884;5.188;2022-09-09T06:03:32;14.60;99.90
18729;DHT22;9493;51.884;5.188;2022-09-09T06:06:00;14.70;99.90
18729;DHT22;9493;51.884;5.188;2022-09-09T06:08:27;14.70;99.90
18729;DHT22;9493;51.884;5.188;2022-09-09T06:11:00;14.70;99.90
18729;DHT22;9493;51.884;5.188;2022-09-09T06:13:27;14.80;99.90
18729;DHT22;9493;51.884;5.188;2022-09-09T06:15:54;14.80;99.90
18729;DHT22;9493;51.884;5.188;2022-09-09T06:18:22;14.90;99.90
18729;DHT22;9493;51.884;5.188;2022-09-09T06:20:56;14.90;99.90
18729;DHT22;9493;51.884;5.188;2022-09-09T06:23:24;14.80;99.90
18729;DHT22;9493;51.884;5.188;2022-09-09T06:25:51;14.90;99.90
18729;DHT22;9493;51.884;5.188;2022-09-09T06:28:18;14.90;99.90
18729;DHT22;9493;51.884;5.188;2022-09-09T06:30:45;14.90;99.90
18729;DHT22;9493;51.884;5.188;2022-09-09T06:33:12;14.90;99.90
18729;DHT22;9493;51.884;5.188;2022-09-09T06:35:40;14.90;99.90
18729;DHT22;9493;51.884;5.188;2022-09-09T06:38:07;14.90;99.90
18729;DHT22;9493;51.884;5.188;2022-09-09T06:40:34;14.90;99.90
18729;DHT22;9493;51.884;5.188;2022-09-09T06:43:00;14.90;99.90
18729;DHT22;9493;51.884;5.188;2022-09-09T06:45:27;14.90;99.90
18729;DHT22;9493;51.884;5.188;2022-09-09T06:47:55;15.00;99.90
18729;DHT22;9493;51.884;5.188;2022-09-09T06:50:22;15.00;99.90
18729;DHT22;9493;51.884;5.188;2022-09-09T06:52:50;15.10;99.90
18729;DHT22;9493;51.884;5.188;2022-09-09T06:55:17;15.10;99.90
18729;DHT22;9493;51.884;5.188;2022-09-09T06:57:44;15.20;99.90
18729;DHT22;9493;51.884;5.188;2022-09-09T07:00:11;15.20;99.90
18729;DHT22;9493;51.884;5.188;2022-09-09T07:02:39;15.40;99.90
18729;DHT22;9493;51.884;5.188;2022-09-09T07:05:07;15.50;99.90
18729;DHT22;9493;51.884;5.188;2022-09-09T07:07:34;15.60;99.90
18729;DHT22;9493;51.884;5.188;2022-09-09T07:10:03;15.70;99.90
18729;DHT22;9493;51.884;5.188;2022-09-09T07:12:30;15.70;99.90
18729;DHT22;9493;51.884;5.188;2022-09-09T07:14:57;16.00;99.90
18729;DHT22;9493;51.884;5.188;2022-09-09T07:17:24;16.10;99.90
18729;DHT22;9493;51.884;5.188;2022-09-09T07:19:50;16.20;99.90
18729;DHT22;9493;51.884;5.188;2022-09-09T07:22:17;16.30;99.90
18729;DHT22;9493;51.884;5.188;2022-09-09T07:24:45;16.40;99.90
18729;DHT22;9493;51.884;5.188;2022-09-09T07:27:13;16.40;99.90
18729;DHT22;9493;51.884;5.188;2022-09-09T07:29:40;16.60;99.90
18729;DHT22;9493;51.884;5.188;2022-09-09T07:32:06;16.50;99.90
18729;DHT22;9493;51.884;5.188;2022-09-09T07:34:33;16.50;99.90
18729;DHT22;9493;51.884;5.188;2022-09-09T07:37:00;16.50;99.90
18729;DHT22;9493;51.884;5.188;2022-09-09T07:39:27;16.70;99.90
18729;DHT22;9493;51.884;5.188;2022-09-09T07:41:53;16.60;99.90
18729;DHT22;9493;51.884;5.188;2022-09-09T07:44:24;16.60;99.90
18729;DHT22;9493;51.884;5.188;2022-09-09T07:46:52;16.40;99.90
18729;DHT22;9493;51.884;5.188;2022-09-09T07:49:19;16.50;99.90
18729;DHT22;9493;51.884;5.188;2022-09-09T07:51:47;16.50;99.90
18729;DHT22;9493;51.884;5.188;2022-09-09T07:54:16;16.60;99.90
18729;DHT22;9493;51.884;5.188;2022-09-09T07:56:45;16.50;99.90
18729;DHT22;9493;51.884;5.188;2022-09-09T07:59:12;16.60;99.90
18729;DHT22;9493;51.884;5.188;2022-09-09T08:01:43;16.50;99.90
18729;DHT22;9493;51.884;5.188;2022-09-09T08:04:25;16.60;99.90
18729;DHT22;9493;51.884;5.188;2022-09-09T08:06:55;16.60;99.90
18729;DHT22;9493;51.884;5.188;2022-09-09T08:09:23;16.50;99.90
18729;DHT22;9493;51.884;5.188;2022-09-09T08:11:52;16.50;99.90
18729;DHT22;9493;51.884;5.188;2022-09-09T08:14:19;16.60;99.90
18729;DHT22;9493;51.884;5.188;2022-09-09T08:16:48;16.70;99.90
18729;DHT22;9493;51.884;5.188;2022-09-09T08:19:15;16.80;99.90
18729;DHT22;9493;51.884;5.188;2022-09-09T08:21:43;16.90;99.90
18729;DHT22;9493;51.884;5.188;2022-09-09T08:24:11;16.90;99.90
18729;DHT22;9493;51.884;5.188;2022-09-09T08:26:40;16.80;99.90
18729;DHT22;9493;51.884;5.188;2022-09-09T08:29:09;16.90;99.90
18729;DHT22;9493;51.884;5.188;2022-09-09T08:31:38;16.80;99.90
18729;DHT22;9493;51.884;5.188;2022-09-09T08:34:06;16.80;99.90
18729;DHT22;9493;51.884;5.188;2022-09-09T08:36:36;16.90;99.90
18729;DHT22;9493;51.884;5.188;2022-09-09T08:39:04;16.80;99.90
18729;DHT22;9493;51.884;5.188;2022-09-09T08:41:55;17.00;99.90
18729;DHT22;9493;51.884;5.188;2022-09-09T08:44:36;17.00;99.90
18729;DHT22;9493;51.884;5.188;2022-09-09T08:47:09;17.10;99.90
18729;DHT22;9493;51.884;5.188;2022-09-09T08:49:58;17.00;99.90
18729;DHT22;9493;51.884;5.188;2022-09-09T08:52:29;17.10;99.90
18729;DHT22;9493;51.884;5.188;2022-09-09T08:54:58;17.20;99.90
18729;DHT22;9493;51.884;5.188;2022-09-09T08:57:28;17.10;99.90
18729;DHT22;9493;51.884;5.188;2022-09-09T08:59:58;17.10;99.90
18729;DHT22;9493;51.884;5.188;2022-09-09T09:02:27;17.20;99.90
18729;DHT22;9493;51.884;5.188;2022-09-09T09:05:11;17.20;99.90
18729;DHT22;9493;51.884;5.188;2022-09-09T09:07:52;17.30;99.90
18729;DHT22;9493;51.884;5.188;2022-09-09T09:10:30;17.30;99.90
18729;DHT22;9493;51.884;5.188;2022-09-09T09:13:00;17.30;99.90
18729;DHT22;9493;51.884;5.188;2022-09-09T09:15:31;17.10;99.90
18729;DHT22;9493;51.884;5.188;2022-09-09T09:18:02;17.10;99.90
18729;DHT22;9493;51.884;5.188;2022-09-09T09:20:37;17.10;99.90
18729;DHT22;9493;51.884;5.188;2022-09-09T09:23:12;17.20;99.90
18729;DHT22;9493;51.884;5.188;2022-09-09T09:25:42;17.20;99.90
18729;DHT22;9493;51.884;5.188;2022-09-09T09:28:13;17.30;99.90
18729;DHT22;9493;51.884;5.188;2022-09-09T09:30:46;17.50;99.90
18729;DHT22;9493;51.884;5.188;2022-09-09T09:33:17;17.40;99.90
18729;DHT22;9493;51.884;5.188;2022-09-09T09:35:45;17.40;99.90
18729;DHT22;9493;51.884;5.188;2022-09-09T09:38:16;17.30;99.90
18729;DHT22;9493;51.884;5.188;2022-09-09T09:40:51;17.20;99.90
18729;DHT22;9493;51.884;5.188;2022-09-09T09:43:24;17.30;99.90
18729;DHT22;9493;51.884;5.188;2022-09-09T09:45:53;17.30;99.90
18729;DHT22;9493;51.884;5.188;2022-09-09T09:48:20;17.30;99.90
18729;DHT22;9493;51.884;5.188;2022-09-09T09:50:51;17.30;99.90
18729;DHT22;9493;51.884;5.188;2022-09-09T09:53:24;17.20;99.90
18729;DHT22;9493;51.884;5.188;2022-09-09T09:55:55;17.20;99.90
18729;DHT22;9493;51.884;5.188;2022-09-09T09:58:22;17.30;99.90
18729;DHT22;9493;51.884;5.188;2022-09-09T10:00:50;17.10;99.90
18729;DHT22;9493;51.884;5.188;2022-09-09T10:03:24;17.10;99.90
18729;DHT22;9493;51.884;5.188;2022-09-09T10:06:08;17.30;99.90
18729;DHT22;9493;51.884;5.188;2022-09-09T10:08:44;17.10;99.90
18729;DHT22;9493;51.884;5.188;2022-09-09T10:11:30;17.00;99.90
18729;DHT22;9493;51.884;5.188;2022-09-09T10:14:05;16.90;99.90
18729;DHT22;9493;51.884;5.188;2022-09-09T10:16:43;16.90;99.90
18729;DHT22;9493;51.884;5.188;2022-09-09T10:19:15;16.80;99.90
18729;DHT22;9493;51.884;5.188;2022-09-09T10:22:04;16.70;99.90
18729;DHT22;9493;51.884;5.188;2022-09-09T10:28:27;17.30;99.90
18729;DHT22;9493;51.884;5.188;2022-09-09T10:31:07;17.80;99.90
18729;DHT22;9493;51.884;5.188;2022-09-09T10:33:44;17.90;99.90
18729;DHT22;9493;51.884;5.188;2022-09-09T10:36:19;18.10;99.90
18729;DHT22;9493;51.884;5.188;2022-09-09T10:38:53;18.20;99.90
18729;DHT22;9493;51.884;5.188;2022-09-09T10:41:31;18.50;99.90
18729;DHT22;9493;51.884;5.188;2022-09-09T10:44:15;18.60;99.90
18729;DHT22;9493;51.884;5.188;2022-09-09T10:46:56;18.50;99.90
18729;DHT22;9493;51.884;5.188;2022-09-09T10:49:37;18.20;99.90
18729;DHT22;9493;51.884;5.188;2022-09-09T10:52:12;18.20;99.90
18729;DHT22;9493;51.884;5.188;2022-09-09T10:54:52;18.00;99.90
18729;DHT22;9493;51.884;5.188;2022-09-09T10:57:27;18.00;99.90
18729;DHT22;9493;51.884;5.188;2022-09-09T10:59:59;17.80;99.90
18729;DHT22;9493;51.884;5.188;2022-09-09T11:02:30;17.90;99.90
18729;DHT22;9493;51.884;5.188;2022-09-09T11:05:00;17.80;99.90
18729;DHT22;9493;51.884;5.188;2022-09-09T11:07:34;17.80;99.90
18729;DHT22;9493;51.884;5.188;2022-09-09T11:10:13;17.90;99.90
18729;DHT22;9493;51.884;5.188;2022-09-09T11:12:43;18.00;99.90
18729;DHT22;9493;51.884;5.188;2022-09-09T11:15:17;17.80;99.90
18729;DHT22;9493;51.884;5.188;2022-09-09T11:17:48;17.80;99.90
18729;DHT22;9493;51.884;5.188;2022-09-09T11:20:15;17.60;99.90
18729;DHT22;9493;51.884;5.188;2022-09-09T11:22:46;17.40;99.90
18729;DHT22;9493;51.884;5.188;2022-09-09T11:25:20;17.40;99.90
18729;DHT22;9493;51.884;5.188;2022-09-09T11:30:54;17.70;99.90
18729;DHT22;9493;51.884;5.188;2022-09-09T11:36:49;17.90;99.90
18729;DHT22;9493;51.884;5.188;2022-09-09T11:42:20;18.00;99.90
18729;DHT22;9493;51.884;5.188;2022-09-09T11:44:47;17.90;99.90
18729;DHT22;9493;51.884;5.188;2022-09-09T11:47:23;17.50;99.90
18729;DHT22;9493;51.884;5.188;2022-09-09T11:49:54;17.70;99.90
18729;DHT22;9493;51.884;5.188;2022-09-09T11:52:23;17.60;99.90
18729;DHT22;9493;51.884;5.188;2022-09-09T11:54:51;17.50;99.90
18729;DHT22;9493;51.884;5.188;2022-09-09T11:57:26;17.60;99.90
18729;DHT22;9493;51.884;5.188;2022-09-09T11:59:54;17.70;99.90
18729;DHT22;9493;51.884;5.188;2022-09-09T12:02:24;17.90;99.90
18729;DHT22;9493;51.884;5.188;2022-09-09T12:04:56;18.10;99.90
18729;DHT22;9493;51.884;5.188;2022-09-09T12:07:32;18.20;99.90
18729;DHT22;9493;51.884;5.188;2022-09-09T12:10:03;17.80;99.90
18729;DHT22;9493;51.884;5.188;2022-09-09T12:12:35;17.90;99.90
18729;DHT22;9493;51.884;5.188;2022-09-09T12:15:22;18.10;99.90
18729;DHT22;9493;51.884;5.188;2022-09-09T12:17:51;17.80;99.90
18729;DHT22;9493;51.884;5.188;2022-09-09T12:20:21;17.80;99.90
18729;DHT22;9493;51.884;5.188;2022-09-09T12:22:59;17.80;99.90
18729;DHT22;9493;51.884;5.188;2022-09-09T12:25:36;18.00;99.90
18729;DHT22;9493;51.884;5.188;2022-09-09T12:28:14;18.10;99.90
18729;DHT22;9493;51.884;5.188;2022-09-09T12:30:49;17.90;99.90
18729;DHT22;9493;51.884;5.188;2022-09-09T12:33:19;17.90;99.90
18729;DHT22;9493;51.884;5.188;2022-09-09T12:35:52;17.80;99.90
18729;DHT22;9493;51.884;5.188;2022-09-09T12:38:25;17.80;99.90
18729;DHT22;9493;51.884;5.188;2022-09-09T12:40:55;17.80;99.90
18729;DHT22;9493;51.884;5.188;2022-09-09T12:43:25;17.80;99.90
18729;DHT22;9493;51.884;5.188;2022-09-09T12:45:54;17.50;99.90
18729;DHT22;9493;51.884;5.188;2022-09-09T12:48:29;17.50;99.90
18729;DHT22;9493;51.884;5.188;2022-09-09T12:50:57;17.40;99.90
18729;DHT22;9493;51.884;5.188;2022-09-09T12:53:26;17.60;99.90
18729;DHT22;9493;51.884;5.188;2022-09-09T12:55:56;17.70;99.90
18729;DHT22;9493;51.884;5.188;2022-09-09T12:58:25;17.80;99.90
18729;DHT22;9493;51.884;5.188;2022-09-09T13:00:55;17.90;99.90
18729;DHT22;9493;51.884;5.188;2022-09-09T13:03:23;17.90;99.90
18729;DHT22;9493;51.884;5.188;2022-09-09T13:05:50;18.00;99.90
18729;DHT22;9493;51.884;5.188;2022-09-09T13:08:18;17.90;99.90
18729;DHT22;9493;51.884;5.188;2022-09-09T13:10:49;18.10;99.90
18729;DHT22;9493;51.884;5.188;2022-09-09T13:13:21;18.10;99.90
18729;DHT22;9493;51.884;5.188;2022-09-09T13:15:52;18.10;99.90
18729;DHT22;9493;51.884;5.188;2022-09-09T13:18:22;18.00;99.90
18729;DHT22;9493;51.884;5.188;2022-09-09T13:20:50;18.20;99.90
18729;DHT22;9493;51.884;5.188;2022-09-09T13:23:19;18.30;99.90
18729;DHT22;9493;51.884;5.188;2022-09-09T13:25:54;18.30;99.90
18729;DHT22;9493;51.884;5.188;2022-09-09T13:28:23;18.10;99.90
18729;DHT22;9493;51.884;5.188;2022-09-09T13:30:59;18.30;99.90
18729;DHT22;9493;51.884;5.188;2022-09-09T13:33:31;18.50;99.90
18729;DHT22;9493;51.884;5.188;2022-09-09T13:36:00;18.30;99.90
18729;DHT22;9493;51.884;5.188;2022-09-09T13:38:31;18.30;99.90
18729;DHT22;9493;51.884;5.188;2022-09-09T13:41:00;18.40;99.90
18729;DHT22;9493;51.884;5.188;2022-09-09T13:43:30;18.60;99.90
18729;DHT22;9493;51.884;5.188;2022-09-09T13:46:00;18.50;99.90
18729;DHT22;9493;51.884;5.188;2022-09-09T13:48:28;18.70;99.90
18729;DHT22;9493;51.884;5.188;2022-09-09T13:50:58;18.70;99.90
18729;DHT22;9493;51.884;5.188;2022-09-09T13:53:26;18.80;99.90
18729;DHT22;9493;51.884;5.188;2022-09-09T13:55:53;18.80;99.90
18729;DHT22;9493;51.884;5.188;2022-09-09T13:58:20;19.00;99.90
18729;DHT22;9493;51.884;5.188;2022-09-09T14:00:48;19.00;99.90
18729;DHT22;9493;51.884;5.188;2022-09-09T14:03:17;19.40;99.90
18729;DHT22;9493;51.884;5.188;2022-09-09T14:05:44;19.40;99.90
18729;DHT22;9493;51.884;5.188;2022-09-09T14:08:19;19.90;99.90
18729;DHT22;9493;51.884;5.188;2022-09-09T14:10:47;20.20;99.90
18729;DHT22;9493;51.884;5.188;2022-09-09T14:13:14;20.20;99.90
18729;DHT22;9493;51.884;5.188;2022-09-09T14:15:41;20.00;99.90
18729;DHT22;9493;51.884;5.188;2022-09-09T14:18:11;20.00;99.90
18729;DHT22;9493;51.884;5.188;2022-09-09T14:20:40;20.10;99.90
18729;DHT22;9493;51.884;5.188;2022-09-09T14:23:10;20.30;99.90
18729;DHT22;9493;51.884;5.188;2022-09-09T14:25:40;20.10;99.90
18729;DHT22;9493;51.884;5.188;2022-09-09T14:28:09;20.40;99.90
18729;DHT22;9493;51.884;5.188;2022-09-09T14:30:37;20.10;99.90
18729;DHT22;9493;51.884;5.188;2022-09-09T14:33:04;20.00;99.90
18729;DHT22;9493;51.884;5.188;2022-09-09T14:35:31;19.90;99.90
18729;DHT22;9493;51.884;5.188;2022-09-09T14:38:00;19.80;99.90
18729;DHT22;9493;51.884;5.188;2022-09-09T14:40:27;19.50;99.90
18729;DHT22;9493;51.884;5.188;2022-09-09T14:42:54;19.30;99.90
18729;DHT22;9493;51.884;5.188;2022-09-09T14:45:22;19.40;99.90
18729;DHT22;9493;51.884;5.188;2022-09-09T14:47:50;19.60;99.90
18729;DHT22;9493;51.884;5.188;2022-09-09T14:50:17;19.90;99.90
18729;DHT22;9493;51.884;5.188;2022-09-09T14:52:44;19.80;99.90
18729;DHT22;9493;51.884;5.188;2022-09-09T14:55:12;19.60;99.90
18729;DHT22;9493;51.884;5.188;2022-09-09T14:57:38;20.00;99.90
18729;DHT22;9493;51.884;5.188;2022-09-09T15:00:06;20.00;99.90
18729;DHT22;9493;51.884;5.188;2022-09-09T15:02:34;19.90;99.90
18729;DHT22;9493;51.884;5.188;2022-09-09T15:05:01;19.60;99.90
18729;DHT22;9493;51.884;5.188;2022-09-09T15:07:28;19.10;99.90
18729;DHT22;9493;51.884;5.188;2022-09-09T15:09:57;18.80;99.90
18729;DHT22;9493;51.884;5.188;2022-09-09T15:12:25;18.70;99.90
18729;DHT22;9493;51.884;5.188;2022-09-09T15:14:52;18.50;99.90
18729;DHT22;9493;51.884;5.188;2022-09-09T15:17:20;18.60;99.90
18729;DHT22;9493;51.884;5.188;2022-09-09T15:19:47;18.40;99.90
18729;DHT22;9493;51.884;5.188;2022-09-09T15:22:15;18.40;99.90
18729;DHT22;9493;51.884;5.188;2022-09-09T15:24:42;18.50;99.90
18729;DHT22;9493;51.884;5.188;2022-09-09T15:27:09;18.40;99.90
18729;DHT22;9493;51.884;5.188;2022-09-09T15:29:37;18.40;99.90
18729;DHT22;9493;51.884;5.188;2022-09-09T15:32:04;18.40;99.90
18729;DHT22;9493;51.884;5.188;2022-09-09T15:34:31;18.50;99.90
18729;DHT22;9493;51.884;5.188;2022-09-09T15:36:58;18.50;99.90
18729;DHT22;9493;51.884;5.188;2022-09-09T15:39:25;18.50;99.90
18729;DHT22;9493;51.884;5.188;2022-09-09T15:41:52;18.60;99.90
18729;DHT22;9493;51.884;5.188;2022-09-09T15:44:19;18.60;99.90
18729;DHT22;9493;51.884;5.188;2022-09-09T15:46:49;18.60;99.90
18729;DHT22;9493;51.884;5.188;2022-09-09T15:49:18;18.60;99.90
18729;DHT22;9493;51.884;5.188;2022-09-09T15:51:46;18.60;99.90
18729;DHT22;9493;51.884;5.188;2022-09-09T15:54:14;18.70;99.90
18729;DHT22;9493;51.884;5.188;2022-09-09T15:56:43;18.80;99.90
18729;DHT22;9493;51.884;5.188;2022-09-09T15:59:09;18.70;99.90
18729;DHT22;9493;51.884;5.188;2022-09-09T16:01:37;18.90;99.90
18729;DHT22;9493;51.884;5.188;2022-09-09T16:04:06;19.00;99.90
18729;DHT22;9493;51.884;5.188;2022-09-09T16:06:32;18.90;99.90
18729;DHT22;9493;51.884;5.188;2022-09-09T16:09:00;18.80;99.90
18729;DHT22;9493;51.884;5.188;2022-09-09T16:11:30;18.80;99.90
18729;DHT22;9493;51.884;5.188;2022-09-09T16:13:58;18.80;99.90
18729;DHT22;9493;51.884;5.188;2022-09-09T16:16:27;18.80;99.90
18729;DHT22;9493;51.884;5.188;2022-09-09T16:18:55;18.70;99.90
18729;DHT22;9493;51.884;5.188;2022-09-09T16:21:25;18.70;99.90
18729;DHT22;9493;51.884;5.188;2022-09-09T16:23:55;18.70;99.90
18729;DHT22;9493;51.884;5.188;2022-09-09T16:26:22;18.70;99.90
18729;DHT22;9493;51.884;5.188;2022-09-09T16:28:49;18.80;99.90
18729;DHT22;9493;51.884;5.188;2022-09-09T16:31:18;18.60;99.90
18729;DHT22;9493;51.884;5.188;2022-09-09T16:33:46;18.50;99.90
18729;DHT22;9493;51.884;5.188;2022-09-09T16:36:14;18.50;99.90
18729;DHT22;9493;51.884;5.188;2022-09-09T16:38:43;18.50;99.90
18729;DHT22;9493;51.884;5.188;2022-09-09T16:41:11;18.50;99.90
18729;DHT22;9493;51.884;5.188;2022-09-09T16:43:39;18.50;99.90
18729;DHT22;9493;51.884;5.188;2022-09-09T16:46:12;18.50;99.90